Daily Summary

Last 30 Days

Daily Data | Pacific/Honolulu
as of 6/25/22 7:58 PM HST
Date Daily Max Temp (°F) Time of Max Temp Daily Min Temp (°F) Time of Min Temp Daily Rain (In) Seasonal Rainfall (In) Wind Spd (mph) Daily Max Wind (mph) Time of Max Wind Max Wind Dir (°) Daily Solar Rad (Cal/cm2) Daily ETo (in) Dew Pt (°F) Max RH (%) Min RH (%) Max Press (inHg) Time of Max Press Min Press (inHg) Time of Min Press MinBV Day (V)
6/24/22 83.2 1426 74.0 0844 0.01 10.16 6.1 21.9 2235 NNE | 32 530 0.188 67.3 85 59 30.08 0837 29.96 1629 12.7
6/23/22 82.4 1306 73.9 0309 0.04 10.15 7.9 26.1 1746 NNE | 18 622 0.227 66.6 80 58 30.10 0001 29.98 1717 12.8
6/22/22 82.9 1332 74.9 2235 0.02 10.11 8.6 29.3 1731 NNE | 33 654 0.233 67.5 78 56 30.12 0821 30.02 1643 12.7
6/21/22 84.5 1402 75.5 2035 0.01 10.09 7.7 25.9 1638 NNE | 15 653 0.236 68.0 82 58 30.12 2332 30.00 1638 12.8
6/20/22 84.8 1321 75.6 0517 0.03 10.08 6.5 23.0 1356 NE | 56 521 0.198 67.5 78 56 30.12 2330 30.02 0306 12.7
6/19/22 85.6 1359 76.2 0433 0.00 10.05 7.5 23.3 0750 ENE | 72 650 0.247 66.9 73 55 30.09 0837 30.00 1650 12.7
6/18/22 84.0 1354 76.3 0007 0.00 10.05 8.0 25.5 1206 NE | 40 536 0.209 67.6 76 58 30.08 0007 29.99 1629 12.8
6/17/22 83.8 1249 75.4 0531 0.00 10.05 8.3 29.6 1202 NNE | 20 653 0.237 67.6 77 55 30.11 0907 30.01 1739 12.8
6/16/22 82.9 1340 76.0 0204 0.03 10.05 7.6 24.2 1214 NNE | 26 551 0.200 68.6 84 62 30.12 2233 30.02 1612 12.8
6/15/22 82.9 1358 75.0 0451 0.07 10.02 5.3 23.8 1742 NNE | 29 273 0.114 69.5 84 63 30.13 0847 30.02 1702 12.8
6/14/22 82.3 1403 75.5 0931 0.00 9.95 8.1 32.3 1707 NNE | 25 442 0.178 67.1 80 57 30.17 1029 30.04 1836 12.7
6/13/22 83.2 1308 76.4 2015 0.00 9.95 9.0 30.8 1532 NNE | 29 558 0.214 68.3 82 59 30.18 2218 30.08 1532 12.7
6/12/22 83.3 1309 76.5 0459 0.00 9.95 9.2 28.1 1504 NE | 50 618 0.230 68.5 82 60 30.17 2318 30.05 1731 12.8
6/11/22 83.9 1440 76.2 0228 0.00 9.95 8.9 31.9 1410 NNE | 16 656 0.250 67.1 74 55 30.16 2253 30.03 1332 12.8
6/10/22 83.2 1231 74.9 0529 0.00 9.95 8.1 26.1 1827 NNE | 29 670 0.242 66.5 73 58 30.12 2304 30.01 1529 12.8
6/9/22 84.2 1327 73.1 0238 0.00 9.95 6.4 22.7 1642 NNE | 32 694 0.247 66.2 78 51 30.11 2313 29.99 1639 12.7
6/8/22 84.3 1546 74.3 0416 0.00 9.95 5.9 22.6 1149 NE | 36 686 0.244 66.6 77 53 30.10 0001 30.01 1638 12.7
6/7/22 84.9 1236 76.0 0349 0.00 9.95 5.7 26.1 1636 NE | 38 619 0.227 66.6 75 51 30.12 2216 30.03 1636 12.7
6/6/22 84.8 1323 72.1 0552 0.00 9.95 5.6 23.2 1613 NE | 52 679 0.237 67.8 84 57 30.11 2202 30.00 1606 12.7
6/5/22 84.5 1236 74.0 0547 0.00 9.95 6.6 19.7 1242 NNE | 30 682 0.242 67.1 79 55 30.10 2316 29.99 1539 12.7
6/4/22 84.3 1314 73.6 0235 0.00 9.95 6.9 20.6 1633 NE | 40 707 0.256 64.9 76 49 30.10 2302 30.00 1721 12.7
6/3/22 84.0 1401 72.1 0548 0.00 9.95 5.9 19.2 1106 NNE | 33 686 0.239 66.4 80 55 30.11 2249 30.01 1722 12.7
6/2/22 82.2 1326 75.1 0519 0.00 9.95 5.7 23.4 1406 NE | 45 569 0.191 68.0 79 64 30.10 2245 30.01 1656 12.7
6/1/22 82.9 1409 72.9 0513 0.00 9.95 6.5 24.5 1241 NNE | 12 650 0.226 67.3 88 57 30.10 2207 30.00 1711 12.7
5/31/22 84.2 1231 74.3 0432 0.00 9.95 6.7 24.7 1338 NNE | 26 684 0.239 66.8 78 57 30.08 2220 29.98 1551 12.7
5/30/22 82.7 1242 74.0 0657 0.00 9.95 6.3 24.7 1436 NE | 53 639 0.226 66.4 80 56 30.08 0905 29.96 1623 12.8
5/29/22 82.4 1128 72.7 0525 0.00 9.95 4.0 17.5 1222 NNE | 28 315 0.119 68.7 90 65 30.09 0001 29.99 1710 12.7
5/28/22 82.0 1201 74.4 0255 0.00 9.95 5.4 22.4 1155 NE | 37 544 0.190 67.6 86 61 30.11 2218 30.01 1644 12.8
5/27/22 83.5 1051 74.0 0055 0.00 9.95 6.6 21.8 1406 NE | 36 600 0.221 64.2 78 44 30.10 2224 29.99 0315 12.8
5/26/22 82.8 1504 73.6 0344 0.00 9.95 7.2 22.5 1416 ENE | 57 626 0.244 61.3 69 43 30.06 2246 29.95 1508 12.8
Max 85.6 - 76.5 - 0.07 10.16 9.2 32.3 - - 707 0.256 69.5 90 65 30.18 - 30.08 - 12.8
Avg - - - - - - 7.0 - - - - - 67.0 - - - - - - -
Min 82.0 - 72.1 - 0.00 9.95 4.0 17.5 - - 273 0.114 61.3 69 43 30.06 - 29.95 - 12.7